Pealertown, Pennsylvania
Current Conditions -  °F | °C
As of 12:55 PM on Friday 24 Oct 2014 (Local Time) from KHZL Reporting Station
Scattered Clouds Scattered Clouds  
Wind Chill: 59°   Ceiling: Unl
Heat Index: 59°   Visibility: 10mi
Dew Point: 43°   Wind: 15mph
Humidity: 55%   Direction: 310°NW
Pressure: 29.9"   Gusts: 23mph
Location:  41.1114°N, 76.3684°W
Report Text: KHZL 241655Z AUTO 31013G20KT 10SM SCT034 15/06 A2990 RMK AO2
Loading
Personal Weather Stations






























Interactive Weather Map New forecast layout! Learn more

10-Day Weather Forecast

Advertisements
Track Severe Weather on mobile